sensor_id;sensor_type;location;lat;lon;timestamp;temperature;humidity
1716;DHT22;855;48.824;9.220;2022-09-06T00:00:04;20.60;87.00
1716;DHT22;855;48.824;9.220;2022-09-06T00:02:32;20.60;87.00
1716;DHT22;855;48.824;9.220;2022-09-06T00:04:59;20.50;87.40
1716;DHT22;855;48.824;9.220;2022-09-06T00:07:27;20.50;87.70
1716;DHT22;855;48.824;9.220;2022-09-06T00:09:53;20.40;87.90
1716;DHT22;855;48.824;9.220;2022-09-06T00:12:21;20.50;88.20
1716;DHT22;855;48.824;9.220;2022-09-06T00:14:48;20.50;88.10
1716;DHT22;855;48.824;9.220;2022-09-06T00:17:16;20.60;87.90
1716;DHT22;855;48.824;9.220;2022-09-06T00:19:43;20.50;87.80
1716;DHT22;855;48.824;9.220;2022-09-06T00:22:10;20.50;87.40
1716;DHT22;855;48.824;9.220;2022-09-06T00:24:37;20.50;87.70
1716;DHT22;855;48.824;9.220;2022-09-06T00:27:05;20.40;87.80
1716;DHT22;855;48.824;9.220;2022-09-06T00:29:33;20.40;88.10
1716;DHT22;855;48.824;9.220;2022-09-06T00:31:59;20.30;88.10
1716;DHT22;855;48.824;9.220;2022-09-06T00:34:28;20.30;88.30
1716;DHT22;855;48.824;9.220;2022-09-06T00:36:55;20.30;88.20
1716;DHT22;855;48.824;9.220;2022-09-06T00:39:22;20.20;88.30
1716;DHT22;855;48.824;9.220;2022-09-06T00:41:48;20.30;88.30
1716;DHT22;855;48.824;9.220;2022-09-06T00:44:15;20.30;88.20
1716;DHT22;855;48.824;9.220;2022-09-06T00:46:44;20.20;88.20
1716;DHT22;855;48.824;9.220;2022-09-06T00:49:14;20.10;88.30
1716;DHT22;855;48.824;9.220;2022-09-06T00:51:50;19.90;89.40
1716;DHT22;855;48.824;9.220;2022-09-06T00:54:18;19.90;89.70
1716;DHT22;855;48.824;9.220;2022-09-06T00:56:45;19.80;89.90
1716;DHT22;855;48.824;9.220;2022-09-06T00:59:12;19.80;90.10
1716;DHT22;855;48.824;9.220;2022-09-06T01:01:39;19.80;89.90
1716;DHT22;855;48.824;9.220;2022-09-06T01:04:06;19.90;89.80
1716;DHT22;855;48.824;9.220;2022-09-06T01:06:41;20.00;89.40
1716;DHT22;855;48.824;9.220;2022-09-06T01:09:20;19.90;89.30
1716;DHT22;855;48.824;9.220;2022-09-06T01:11:59;19.80;89.70
1716;DHT22;855;48.824;9.220;2022-09-06T01:14:36;19.70;90.10
1716;DHT22;855;48.824;9.220;2022-09-06T01:17:10;19.70;90.10
1716;DHT22;855;48.824;9.220;2022-09-06T01:20:13;19.70;90.20
1716;DHT22;855;48.824;9.220;2022-09-06T01:23:04;19.70;90.30
1716;DHT22;855;48.824;9.220;2022-09-06T01:25:52;19.80;90.10
1716;DHT22;855;48.824;9.220;2022-09-06T01:28:31;19.90;89.90
1716;DHT22;855;48.824;9.220;2022-09-06T01:31:11;19.90;89.50
1716;DHT22;855;48.824;9.220;2022-09-06T01:33:49;19.90;89.30
1716;DHT22;855;48.824;9.220;2022-09-06T01:36:21;19.70;89.90
1716;DHT22;855;48.824;9.220;2022-09-06T01:38:50;19.70;90.10
1716;DHT22;855;48.824;9.220;2022-09-06T01:41:16;19.70;90.30
1716;DHT22;855;48.824;9.220;2022-09-06T01:43:47;19.70;90.30
1716;DHT22;855;48.824;9.220;2022-09-06T01:46:19;19.80;90.10
1716;DHT22;855;48.824;9.220;2022-09-06T01:49:02;19.90;89.70
1716;DHT22;855;48.824;9.220;2022-09-06T01:51:42;20.00;89.00
1716;DHT22;855;48.824;9.220;2022-09-06T01:54:24;20.00;88.70
1716;DHT22;855;48.824;9.220;2022-09-06T01:57:02;20.10;88.20
1716;DHT22;855;48.824;9.220;2022-09-06T01:59:54;19.80;88.90
1716;DHT22;855;48.824;9.220;2022-09-06T02:02:27;19.60;89.90
1716;DHT22;855;48.824;9.220;2022-09-06T02:05:02;19.60;90.30
1716;DHT22;855;48.824;9.220;2022-09-06T02:07:33;19.60;90.30
1716;DHT22;855;48.824;9.220;2022-09-06T02:10:06;19.70;90.10
1716;DHT22;855;48.824;9.220;2022-09-06T02:12:37;19.80;89.80
1716;DHT22;855;48.824;9.220;2022-09-06T02:15:08;19.80;89.30
1716;DHT22;855;48.824;9.220;2022-09-06T02:17:39;19.70;89.00
1716;DHT22;855;48.824;9.220;2022-09-06T02:20:10;19.30;90.20
1716;DHT22;855;48.824;9.220;2022-09-06T02:22:42;18.80;92.30
1716;DHT22;855;48.824;9.220;2022-09-06T02:25:13;18.60;93.10
1716;DHT22;855;48.824;9.220;2022-09-06T02:27:42;18.70;93.00
1716;DHT22;855;48.824;9.220;2022-09-06T02:30:11;18.80;92.80
1716;DHT22;855;48.824;9.220;2022-09-06T02:32:43;18.90;92.40
1716;DHT22;855;48.824;9.220;2022-09-06T02:35:14;19.10;91.90
1716;DHT22;855;48.824;9.220;2022-09-06T02:37:42;19.30;91.50
1716;DHT22;855;48.824;9.220;2022-09-06T02:40:10;19.40;91.00
1716;DHT22;855;48.824;9.220;2022-09-06T02:42:38;19.60;90.50
1716;DHT22;855;48.824;9.220;2022-09-06T02:45:06;19.70;89.80
1716;DHT22;855;48.824;9.220;2022-09-06T02:47:35;19.80;88.90
1716;DHT22;855;48.824;9.220;2022-09-06T02:50:02;19.90;88.90
1716;DHT22;855;48.824;9.220;2022-09-06T02:52:28;19.90;89.00
1716;DHT22;855;48.824;9.220;2022-09-06T02:54:55;19.90;88.60
1716;DHT22;855;48.824;9.220;2022-09-06T02:57:22;20.00;88.20
1716;DHT22;855;48.824;9.220;2022-09-06T02:59:49;20.10;87.70
1716;DHT22;855;48.824;9.220;2022-09-06T03:02:16;20.30;88.30
1716;DHT22;855;48.824;9.220;2022-09-06T03:07:28;20.30;89.00
1716;DHT22;855;48.824;9.220;2022-09-06T03:09:55;20.30;88.90
1716;DHT22;855;48.824;9.220;2022-09-06T03:12:22;20.50;88.50
1716;DHT22;855;48.824;9.220;2022-09-06T03:14:49;20.60;89.40
1716;DHT22;855;48.824;9.220;2022-09-06T03:17:16;20.50;90.20
1716;DHT22;855;48.824;9.220;2022-09-06T03:19:43;20.60;90.50
1716;DHT22;855;48.824;9.220;2022-09-06T03:22:10;20.70;90.50
1716;DHT22;855;48.824;9.220;2022-09-06T03:24:39;20.70;90.30
1716;DHT22;855;48.824;9.220;2022-09-06T03:27:06;20.80;89.90
1716;DHT22;855;48.824;9.220;2022-09-06T03:29:33;20.80;90.10
1716;DHT22;855;48.824;9.220;2022-09-06T03:32:00;20.80;90.90
1716;DHT22;855;48.824;9.220;2022-09-06T03:34:27;20.80;91.00
1716;DHT22;855;48.824;9.220;2022-09-06T03:36:53;20.60;91.70
1716;DHT22;855;48.824;9.220;2022-09-06T03:39:20;20.60;92.00
1716;DHT22;855;48.824;9.220;2022-09-06T03:41:48;20.60;92.10
1716;DHT22;855;48.824;9.220;2022-09-06T03:44:15;20.40;92.00
1716;DHT22;855;48.824;9.220;2022-09-06T03:46:42;20.30;92.80
1716;DHT22;855;48.824;9.220;2022-09-06T03:49:09;20.00;94.00
1716;DHT22;855;48.824;9.220;2022-09-06T03:51:36;20.10;93.70
1716;DHT22;855;48.824;9.220;2022-09-06T03:54:03;20.10;93.80
1716;DHT22;855;48.824;9.220;2022-09-06T03:56:29;20.20;93.80
1716;DHT22;855;48.824;9.220;2022-09-06T03:58:58;20.20;93.50
1716;DHT22;855;48.824;9.220;2022-09-06T04:01:25;20.30;93.50
1716;DHT22;855;48.824;9.220;2022-09-06T04:03:52;20.30;93.40
1716;DHT22;855;48.824;9.220;2022-09-06T04:06:19;20.00;94.00
1716;DHT22;855;48.824;9.220;2022-09-06T04:08:46;19.90;93.90
1716;DHT22;855;48.824;9.220;2022-09-06T04:11:13;20.00;93.90
1716;DHT22;855;48.824;9.220;2022-09-06T04:13:39;20.10;93.60
1716;DHT22;855;48.824;9.220;2022-09-06T04:16:08;20.00;93.90
1716;DHT22;855;48.824;9.220;2022-09-06T04:18:34;20.00;94.00
1716;DHT22;855;48.824;9.220;2022-09-06T04:21:01;20.10;94.10
1716;DHT22;855;48.824;9.220;2022-09-06T04:23:29;20.10;94.00
1716;DHT22;855;48.824;9.220;2022-09-06T04:25:57;20.10;93.80
1716;DHT22;855;48.824;9.220;2022-09-06T04:28:25;20.10;93.80
1716;DHT22;855;48.824;9.220;2022-09-06T04:30:53;20.00;94.30
1716;DHT22;855;48.824;9.220;2022-09-06T04:33:22;20.00;94.50
1716;DHT22;855;48.824;9.220;2022-09-06T04:35:50;19.90;94.60
1716;DHT22;855;48.824;9.220;2022-09-06T04:38:18;19.90;94.80
1716;DHT22;855;48.824;9.220;2022-09-06T04:40:45;20.00;94.50
1716;DHT22;855;48.824;9.220;2022-09-06T04:43:12;20.00;94.30
1716;DHT22;855;48.824;9.220;2022-09-06T04:45:39;20.10;94.00
1716;DHT22;855;48.824;9.220;2022-09-06T04:48:06;20.20;93.80
1716;DHT22;855;48.824;9.220;2022-09-06T04:50:34;20.20;93.50
1716;DHT22;855;48.824;9.220;2022-09-06T04:53:01;20.10;93.40
1716;DHT22;855;48.824;9.220;2022-09-06T04:55:28;20.10;93.50
1716;DHT22;855;48.824;9.220;2022-09-06T04:57:55;20.10;93.60
1716;DHT22;855;48.824;9.220;2022-09-06T05:00:24;20.00;93.40
1716;DHT22;855;48.824;9.220;2022-09-06T05:02:51;20.00;93.50
1716;DHT22;855;48.824;9.220;2022-09-06T05:05:18;20.10;93.30
1716;DHT22;855;48.824;9.220;2022-09-06T05:07:46;20.20;93.20
1716;DHT22;855;48.824;9.220;2022-09-06T05:10:13;20.20;93.10
1716;DHT22;855;48.824;9.220;2022-09-06T05:12:39;20.20;92.70
1716;DHT22;855;48.824;9.220;2022-09-06T05:15:07;20.10;92.70
1716;DHT22;855;48.824;9.220;2022-09-06T05:17:34;20.10;92.90
1716;DHT22;855;48.824;9.220;2022-09-06T05:20:02;20.00;93.10
1716;DHT22;855;48.824;9.220;2022-09-06T05:22:29;20.10;92.90
1716;DHT22;855;48.824;9.220;2022-09-06T05:24:57;20.10;92.90
1716;DHT22;855;48.824;9.220;2022-09-06T05:27:24;20.20;92.80
1716;DHT22;855;48.824;9.220;2022-09-06T05:29:51;20.30;92.40
1716;DHT22;855;48.824;9.220;2022-09-06T05:32:18;20.40;92.30
1716;DHT22;855;48.824;9.220;2022-09-06T05:34:44;20.50;92.20
1716;DHT22;855;48.824;9.220;2022-09-06T05:37:11;20.60;91.90
1716;DHT22;855;48.824;9.220;2022-09-06T05:39:38;20.60;91.60
1716;DHT22;855;48.824;9.220;2022-09-06T05:42:06;20.70;91.20
1716;DHT22;855;48.824;9.220;2022-09-06T05:44:34;20.80;91.30
1716;DHT22;855;48.824;9.220;2022-09-06T05:47:01;20.80;91.20
1716;DHT22;855;48.824;9.220;2022-09-06T05:49:28;20.70;91.10
1716;DHT22;855;48.824;9.220;2022-09-06T05:51:55;20.60;91.40
1716;DHT22;855;48.824;9.220;2022-09-06T05:54:22;20.60;91.80
1716;DHT22;855;48.824;9.220;2022-09-06T05:56:50;20.70;91.80
1716;DHT22;855;48.824;9.220;2022-09-06T05:59:18;20.80;91.60
1716;DHT22;855;48.824;9.220;2022-09-06T06:01:49;20.80;91.50
1716;DHT22;855;48.824;9.220;2022-09-06T06:04:17;20.80;91.50
1716;DHT22;855;48.824;9.220;2022-09-06T06:06:44;20.80;91.50
1716;DHT22;855;48.824;9.220;2022-09-06T06:09:12;20.90;91.50
1716;DHT22;855;48.824;9.220;2022-09-06T06:11:39;20.80;91.50
1716;DHT22;855;48.824;9.220;2022-09-06T06:14:06;20.80;91.50
1716;DHT22;855;48.824;9.220;2022-09-06T06:16:35;20.80;91.30
1716;DHT22;855;48.824;9.220;2022-09-06T06:19:02;20.70;91.00
1716;DHT22;855;48.824;9.220;2022-09-06T06:21:31;20.50;91.00
1716;DHT22;855;48.824;9.220;2022-09-06T06:23:59;20.50;91.40
1716;DHT22;855;48.824;9.220;2022-09-06T06:26:28;20.50;91.30
1716;DHT22;855;48.824;9.220;2022-09-06T06:28:55;20.50;91.70
1716;DHT22;855;48.824;9.220;2022-09-06T06:31:26;20.50;91.40
1716;DHT22;855;48.824;9.220;2022-09-06T06:33:54;20.30;91.60
1716;DHT22;855;48.824;9.220;2022-09-06T06:36:22;20.40;91.90
1716;DHT22;855;48.824;9.220;2022-09-06T06:38:51;20.40;91.70
1716;DHT22;855;48.824;9.220;2022-09-06T06:41:20;20.50;91.60
1716;DHT22;855;48.824;9.220;2022-09-06T06:43:50;20.60;91.60
1716;DHT22;855;48.824;9.220;2022-09-06T06:46:18;20.70;91.30
1716;DHT22;855;48.824;9.220;2022-09-06T06:48:46;20.80;90.80
1716;DHT22;855;48.824;9.220;2022-09-06T06:51:18;20.90;90.30
1716;DHT22;855;48.824;9.220;2022-09-06T06:53:46;21.00;89.90
1716;DHT22;855;48.824;9.220;2022-09-06T06:56:15;21.00;89.00
1716;DHT22;855;48.824;9.220;2022-09-06T06:58:42;21.00;89.00
1716;DHT22;855;48.824;9.220;2022-09-06T07:01:09;21.00;89.40
1716;DHT22;855;48.824;9.220;2022-09-06T07:03:37;21.10;89.30
1716;DHT22;855;48.824;9.220;2022-09-06T07:06:04;21.20;89.10
1716;DHT22;855;48.824;9.220;2022-09-06T07:08:32;21.30;87.00
1716;DHT22;855;48.824;9.220;2022-09-06T07:11:01;21.30;87.30
1716;DHT22;855;48.824;9.220;2022-09-06T07:13:28;21.30;87.90
1716;DHT22;855;48.824;9.220;2022-09-06T07:16:06;21.40;87.30
1716;DHT22;855;48.824;9.220;2022-09-06T07:18:33;21.60;87.70
1716;DHT22;855;48.824;9.220;2022-09-06T07:20:59;21.70;86.40
1716;DHT22;855;48.824;9.220;2022-09-06T07:23:26;21.70;85.70
1716;DHT22;855;48.824;9.220;2022-09-06T07:25:54;21.70;85.80
1716;DHT22;855;48.824;9.220;2022-09-06T07:28:21;21.60;86.10
1716;DHT22;855;48.824;9.220;2022-09-06T07:30:52;21.80;86.00
1716;DHT22;855;48.824;9.220;2022-09-06T07:33:19;21.90;85.30
1716;DHT22;855;48.824;9.220;2022-09-06T07:35:54;22.00;85.00
1716;DHT22;855;48.824;9.220;2022-09-06T07:38:21;22.10;84.90
1716;DHT22;855;48.824;9.220;2022-09-06T07:40:51;22.20;84.20
1716;DHT22;855;48.824;9.220;2022-09-06T07:43:20;22.30;84.20
1716;DHT22;855;48.824;9.220;2022-09-06T07:45:47;22.30;84.20
1716;DHT22;855;48.824;9.220;2022-09-06T07:48:14;22.40;83.80
1716;DHT22;855;48.824;9.220;2022-09-06T07:50:40;22.50;83.70
1716;DHT22;855;48.824;9.220;2022-09-06T07:53:08;22.60;83.60
1716;DHT22;855;48.824;9.220;2022-09-06T07:55:35;22.80;83.00
1716;DHT22;855;48.824;9.220;2022-09-06T07:58:02;22.90;82.00
1716;DHT22;855;48.824;9.220;2022-09-06T08:00:30;23.10;82.00
1716;DHT22;855;48.824;9.220;2022-09-06T08:02:57;23.20;81.20
1716;DHT22;855;48.824;9.220;2022-09-06T08:05:24;23.30;80.80
1716;DHT22;855;48.824;9.220;2022-09-06T08:07:51;23.40;80.10
1716;DHT22;855;48.824;9.220;2022-09-06T08:10:18;23.60;80.40
1716;DHT22;855;48.824;9.220;2022-09-06T08:12:45;23.70;78.70
1716;DHT22;855;48.824;9.220;2022-09-06T08:15:11;23.80;79.00
1716;DHT22;855;48.824;9.220;2022-09-06T08:17:40;23.80;78.60
1716;DHT22;855;48.824;9.220;2022-09-06T08:20:07;23.90;79.00
1716;DHT22;855;48.824;9.220;2022-09-06T08:22:34;23.80;77.90
1716;DHT22;855;48.824;9.220;2022-09-06T08:25:01;23.90;77.60
1716;DHT22;855;48.824;9.220;2022-09-06T08:27:28;24.00;77.90
1716;DHT22;855;48.824;9.220;2022-09-06T08:29:55;24.00;77.60
1716;DHT22;855;48.824;9.220;2022-09-06T08:32:22;24.10;77.80
1716;DHT22;855;48.824;9.220;2022-09-06T08:34:50;24.30;77.40
1716;DHT22;855;48.824;9.220;2022-09-06T08:37:17;24.50;77.60
1716;DHT22;855;48.824;9.220;2022-09-06T08:39:44;24.70;76.40
1716;DHT22;855;48.824;9.220;2022-09-06T08:42:11;24.90;75.00
1716;DHT22;855;48.824;9.220;2022-09-06T08:44:40;25.10;74.90
1716;DHT22;855;48.824;9.220;2022-09-06T08:47:09;25.20;74.50
1716;DHT22;855;48.824;9.220;2022-09-06T08:49:39;25.30;74.30
1716;DHT22;855;48.824;9.220;2022-09-06T08:52:25;25.40;73.80
1716;DHT22;855;48.824;9.220;2022-09-06T08:54:57;25.50;73.30
1716;DHT22;855;48.824;9.220;2022-09-06T08:57:38;25.70;73.40
1716;DHT22;855;48.824;9.220;2022-09-06T09:00:08;25.80;72.60
1716;DHT22;855;48.824;9.220;2022-09-06T09:02:42;25.90;71.40
1716;DHT22;855;48.824;9.220;2022-09-06T09:05:17;26.00;71.70
1716;DHT22;855;48.824;9.220;2022-09-06T09:07:51;26.10;72.10
1716;DHT22;855;48.824;9.220;2022-09-06T09:10:26;26.20;71.30
1716;DHT22;855;48.824;9.220;2022-09-06T09:12:54;26.40;70.50
1716;DHT22;855;48.824;9.220;2022-09-06T09:15:21;26.50;69.40
1716;DHT22;855;48.824;9.220;2022-09-06T09:17:49;26.60;69.30
1716;DHT22;855;48.824;9.220;2022-09-06T09:20:17;26.80;69.80
1716;DHT22;855;48.824;9.220;2022-09-06T09:22:44;26.90;69.20
1716;DHT22;855;48.824;9.220;2022-09-06T09:25:18;27.00;68.20
1716;DHT22;855;48.824;9.220;2022-09-06T09:27:46;27.20;68.40
1716;DHT22;855;48.824;9.220;2022-09-06T09:30:15;27.30;66.90
1716;DHT22;855;48.824;9.220;2022-09-06T09:32:43;27.40;66.90
1716;DHT22;855;48.824;9.220;2022-09-06T09:35:19;27.50;66.50
1716;DHT22;855;48.824;9.220;2022-09-06T09:37:47;27.60;66.50
1716;DHT22;855;48.824;9.220;2022-09-06T09:40:27;27.60;66.10
1716;DHT22;855;48.824;9.220;2022-09-06T09:43:07;27.60;66.00
1716;DHT22;855;48.824;9.220;2022-09-06T09:45:34;27.70;66.80
1716;DHT22;855;48.824;9.220;2022-09-06T09:48:16;27.90;64.80
1716;DHT22;855;48.824;9.220;2022-09-06T09:50:44;28.00;65.20
1716;DHT22;855;48.824;9.220;2022-09-06T09:53:13;28.20;64.20
1716;DHT22;855;48.824;9.220;2022-09-06T09:55:42;28.50;63.40
1716;DHT22;855;48.824;9.220;2022-09-06T09:58:20;28.50;63.20
1716;DHT22;855;48.824;9.220;2022-09-06T10:01:08;28.80;62.40
1716;DHT22;855;48.824;9.220;2022-09-06T10:03:36;29.00;61.50
1716;DHT22;855;48.824;9.220;2022-09-06T10:06:04;29.00;60.60
1716;DHT22;855;48.824;9.220;2022-09-06T10:08:32;29.20;59.30
1716;DHT22;855;48.824;9.220;2022-09-06T10:11:01;29.50;59.70
1716;DHT22;855;48.824;9.220;2022-09-06T10:13:29;29.70;58.90
1716;DHT22;855;48.824;9.220;2022-09-06T10:15:58;30.00;58.50
1716;DHT22;855;48.824;9.220;2022-09-06T10:18:29;30.20;57.30
1716;DHT22;855;48.824;9.220;2022-09-06T10:20:59;30.50;56.30
1716;DHT22;855;48.824;9.220;2022-09-06T10:23:32;30.80;56.00
1716;DHT22;855;48.824;9.220;2022-09-06T10:26:04;31.10;53.80
1716;DHT22;855;48.824;9.220;2022-09-06T10:28:34;31.30;52.20
1716;DHT22;855;48.824;9.220;2022-09-06T10:31:25;31.30;53.30
1716;DHT22;855;48.824;9.220;2022-09-06T10:34:10;31.50;52.20
1716;DHT22;855;48.824;9.220;2022-09-06T10:36:42;31.50;49.70
1716;DHT22;855;48.824;9.220;2022-09-06T10:39:21;31.60;50.30
1716;DHT22;855;48.824;9.220;2022-09-06T10:42:03;31.60;49.30
1716;DHT22;855;48.824;9.220;2022-09-06T10:44:48;31.40;49.60
1716;DHT22;855;48.824;9.220;2022-09-06T10:47:17;31.30;49.90
1716;DHT22;855;48.824;9.220;2022-09-06T10:49:49;31.20;49.10
1716;DHT22;855;48.824;9.220;2022-09-06T10:52:24;31.50;49.40
1716;DHT22;855;48.824;9.220;2022-09-06T10:54:53;31.40;49.10
1716;DHT22;855;48.824;9.220;2022-09-06T10:57:33;31.50;47.70
1716;DHT22;855;48.824;9.220;2022-09-06T11:00:04;31.40;49.20
1716;DHT22;855;48.824;9.220;2022-09-06T11:02:39;31.30;50.30
1716;DHT22;855;48.824;9.220;2022-09-06T11:05:11;31.40;50.60
1716;DHT22;855;48.824;9.220;2022-09-06T11:07:40;31.50;50.40
1716;DHT22;855;48.824;9.220;2022-09-06T11:10:15;31.40;50.20
1716;DHT22;855;48.824;9.220;2022-09-06T11:12:48;31.30;49.30
1716;DHT22;855;48.824;9.220;2022-09-06T11:15:17;31.20;49.90
1716;DHT22;855;48.824;9.220;2022-09-06T11:17:47;31.20;50.10
1716;DHT22;855;48.824;9.220;2022-09-06T11:20:21;31.30;49.90
1716;DHT22;855;48.824;9.220;2022-09-06T11:23:11;31.00;51.30
1716;DHT22;855;48.824;9.220;2022-09-06T11:28:41;31.30;51.10
1716;DHT22;855;48.824;9.220;2022-09-06T11:31:12;31.40;50.80
1716;DHT22;855;48.824;9.220;2022-09-06T11:33:43;31.40;51.40
1716;DHT22;855;48.824;9.220;2022-09-06T11:36:22;31.10;50.90
1716;DHT22;855;48.824;9.220;2022-09-06T11:38:56;30.40;51.80
1716;DHT22;855;48.824;9.220;2022-09-06T11:41:27;30.40;52.60
1716;DHT22;855;48.824;9.220;2022-09-06T11:43:57;30.60;53.30
1716;DHT22;855;48.824;9.220;2022-09-06T11:46:58;30.30;53.60
1716;DHT22;855;48.824;9.220;2022-09-06T11:49:34;30.40;53.40
1716;DHT22;855;48.824;9.220;2022-09-06T11:54:45;30.30;54.00
1716;DHT22;855;48.824;9.220;2022-09-06T11:57:15;30.30;53.70
1716;DHT22;855;48.824;9.220;2022-09-06T11:59:53;30.40;54.00
1716;DHT22;855;48.824;9.220;2022-09-06T12:02:30;30.70;53.20
1716;DHT22;855;48.824;9.220;2022-09-06T12:05:09;30.50;53.60
1716;DHT22;855;48.824;9.220;2022-09-06T12:07:38;30.50;53.40
1716;DHT22;855;48.824;9.220;2022-09-06T12:10:44;30.20;53.90
1716;DHT22;855;48.824;9.220;2022-09-06T12:13:40;30.20;54.30
1716;DHT22;855;48.824;9.220;2022-09-06T12:16:10;30.40;53.90
1716;DHT22;855;48.824;9.220;2022-09-06T12:18:59;30.20;54.90
1716;DHT22;855;48.824;9.220;2022-09-06T12:21:47;30.00;55.40
1716;DHT22;855;48.824;9.220;2022-09-06T12:24:51;30.00;55.50
1716;DHT22;855;48.824;9.220;2022-09-06T12:27:20;29.70;56.00
1716;DHT22;855;48.824;9.220;2022-09-06T12:29:51;29.60;56.20
1716;DHT22;855;48.824;9.220;2022-09-06T12:32:25;29.60;56.50
1716;DHT22;855;48.824;9.220;2022-09-06T12:34:55;29.50;56.70
1716;DHT22;855;48.824;9.220;2022-09-06T12:37:33;29.60;56.50
1716;DHT22;855;48.824;9.220;2022-09-06T12:40:03;29.50;56.50
1716;DHT22;855;48.824;9.220;2022-09-06T12:42:31;29.50;58.20
1716;DHT22;855;48.824;9.220;2022-09-06T12:45:02;29.50;56.30
1716;DHT22;855;48.824;9.220;2022-09-06T12:47:33;29.60;57.50
1716;DHT22;855;48.824;9.220;2022-09-06T12:50:11;29.60;57.70
1716;DHT22;855;48.824;9.220;2022-09-06T12:52:50;29.60;58.50
1716;DHT22;855;48.824;9.220;2022-09-06T12:55:20;29.70;59.00
1716;DHT22;855;48.824;9.220;2022-09-06T12:57:49;29.80;58.70
1716;DHT22;855;48.824;9.220;2022-09-06T13:00:17;29.80;59.90
1716;DHT22;855;48.824;9.220;2022-09-06T13:02:53;29.70;59.70
1716;DHT22;855;48.824;9.220;2022-09-06T13:05:22;29.70;59.70
1716;DHT22;855;48.824;9.220;2022-09-06T13:07:53;29.70;58.70
1716;DHT22;855;48.824;9.220;2022-09-06T13:10:23;29.70;58.30
1716;DHT22;855;48.824;9.220;2022-09-06T13:12:52;29.50;58.70
1716;DHT22;855;48.824;9.220;2022-09-06T13:15:23;29.30;58.90
1716;DHT22;855;48.824;9.220;2022-09-06T13:17:52;29.10;59.70
1716;DHT22;855;48.824;9.220;2022-09-06T13:20:25;29.20;60.00
1716;DHT22;855;48.824;9.220;2022-09-06T13:23:03;29.20;59.80
1716;DHT22;855;48.824;9.220;2022-09-06T13:25:30;29.20;60.20
1716;DHT22;855;48.824;9.220;2022-09-06T13:27:58;29.30;59.40
1716;DHT22;855;48.824;9.220;2022-09-06T13:30:33;29.30;59.30
1716;DHT22;855;48.824;9.220;2022-09-06T13:33:02;29.50;58.50
1716;DHT22;855;48.824;9.220;2022-09-06T13:35:31;29.70;58.50
1716;DHT22;855;48.824;9.220;2022-09-06T13:38:18;29.90;58.40
1716;DHT22;855;48.824;9.220;2022-09-06T13:40:45;29.80;57.30
1716;DHT22;855;48.824;9.220;2022-09-06T13:43:12;29.90;58.00
1716;DHT22;855;48.824;9.220;2022-09-06T13:45:39;29.90;57.30
1716;DHT22;855;48.824;9.220;2022-09-06T13:48:07;30.10;57.40
1716;DHT22;855;48.824;9.220;2022-09-06T13:50:34;30.20;57.50
1716;DHT22;855;48.824;9.220;2022-09-06T13:53:01;30.30;58.20
1716;DHT22;855;48.824;9.220;2022-09-06T13:55:30;30.40;58.00
1716;DHT22;855;48.824;9.220;2022-09-06T13:57:57;30.40;58.30
1716;DHT22;855;48.824;9.220;2022-09-06T14:00:24;30.30;61.10
1716;DHT22;855;48.824;9.220;2022-09-06T14:02:52;30.30;63.50
1716;DHT22;855;48.824;9.220;2022-09-06T14:05:21;30.20;65.20
1716;DHT22;855;48.824;9.220;2022-09-06T14:07:48;30.10;66.10
1716;DHT22;855;48.824;9.220;2022-09-06T14:10:14;29.90;67.60
1716;DHT22;855;48.824;9.220;2022-09-06T14:12:43;29.80;68.50
1716;DHT22;855;48.824;9.220;2022-09-06T14:15:10;29.30;71.00
1716;DHT22;855;48.824;9.220;2022-09-06T14:17:37;29.10;70.90
1716;DHT22;855;48.824;9.220;2022-09-06T14:20:05;28.80;66.40
1716;DHT22;855;48.824;9.220;2022-09-06T14:22:34;28.70;66.70
1716;DHT22;855;48.824;9.220;2022-09-06T14:25:01;28.90;65.90
1716;DHT22;855;48.824;9.220;2022-09-06T14:27:28;29.00;65.90
1716;DHT22;855;48.824;9.220;2022-09-06T14:29:55;29.00;66.70
1716;DHT22;855;48.824;9.220;2022-09-06T14:32:22;28.90;66.90
1716;DHT22;855;48.824;9.220;2022-09-06T14:34:49;28.90;66.50
1716;DHT22;855;48.824;9.220;2022-09-06T14:37:16;28.90;68.90
1716;DHT22;855;48.824;9.220;2022-09-06T14:39:44;28.80;69.80
1716;DHT22;855;48.824;9.220;2022-09-06T14:42:11;28.80;71.30
1716;DHT22;855;48.824;9.220;2022-09-06T14:44:38;28.70;72.30
1716;DHT22;855;48.824;9.220;2022-09-06T14:47:05;28.60;71.40
1716;DHT22;855;48.824;9.220;2022-09-06T14:49:33;28.60;71.40
1716;DHT22;855;48.824;9.220;2022-09-06T14:52:00;28.50;73.30
1716;DHT22;855;48.824;9.220;2022-09-06T14:54:26;28.20;75.50
1716;DHT22;855;48.824;9.220;2022-09-06T14:56:55;28.10;76.20
1716;DHT22;855;48.824;9.220;2022-09-06T14:59:22;27.90;78.60
1716;DHT22;855;48.824;9.220;2022-09-06T15:01:49;27.40;80.10
1716;DHT22;855;48.824;9.220;2022-09-06T15:04:16;27.20;80.00
1716;DHT22;855;48.824;9.220;2022-09-06T15:06:43;27.10;80.80
1716;DHT22;855;48.824;9.220;2022-09-06T15:09:11;26.90;80.00
1716;DHT22;855;48.824;9.220;2022-09-06T15:11:40;26.60;78.80
1716;DHT22;855;48.824;9.220;2022-09-06T15:14:13;26.60;80.10
1716;DHT22;855;48.824;9.220;2022-09-06T15:16:40;26.50;80.30
1716;DHT22;855;48.824;9.220;2022-09-06T15:19:07;26.30;79.30
1716;DHT22;855;48.824;9.220;2022-09-06T15:21:34;26.10;80.80
1716;DHT22;855;48.824;9.220;2022-09-06T15:24:02;26.00;80.90
1716;DHT22;855;48.824;9.220;2022-09-06T15:26:29;25.80;81.70
1716;DHT22;855;48.824;9.220;2022-09-06T15:28:56;25.80;81.70
1716;DHT22;855;48.824;9.220;2022-09-06T15:31:24;25.90;81.60
1716;DHT22;855;48.824;9.220;2022-09-06T15:33:51;25.90;80.70
1716;DHT22;855;48.824;9.220;2022-09-06T15:36:19;25.80;80.30
1716;DHT22;855;48.824;9.220;2022-09-06T15:38:48;25.80;77.90
1716;DHT22;855;48.824;9.220;2022-09-06T15:41:18;25.80;79.60
1716;DHT22;855;48.824;9.220;2022-09-06T15:43:47;25.90;78.60
1716;DHT22;855;48.824;9.220;2022-09-06T15:46:16;26.20;75.90
1716;DHT22;855;48.824;9.220;2022-09-06T15:48:48;26.40;73.80
1716;DHT22;855;48.824;9.220;2022-09-06T15:51:16;26.40;73.30
1716;DHT22;855;48.824;9.220;2022-09-06T15:53:44;26.40;72.90
1716;DHT22;855;48.824;9.220;2022-09-06T15:56:13;26.30;73.10
1716;DHT22;855;48.824;9.220;2022-09-06T15:58:40;26.20;70.00
1716;DHT22;855;48.824;9.220;2022-09-06T16:01:09;26.10;72.10
1716;DHT22;855;48.824;9.220;2022-09-06T16:03:38;26.00;71.30
1716;DHT22;855;48.824;9.220;2022-09-06T16:06:08;26.00;71.90
1716;DHT22;855;48.824;9.220;2022-09-06T16:08:35;26.10;71.90
1716;DHT22;855;48.824;9.220;2022-09-06T16:11:06;26.30;71.60
1716;DHT22;855;48.824;9.220;2022-09-06T16:13:34;26.40;71.30
1716;DHT22;855;48.824;9.220;2022-09-06T16:16:03;26.50;70.50
1716;DHT22;855;48.824;9.220;2022-09-06T16:18:30;26.70;70.10
1716;DHT22;855;48.824;9.220;2022-09-06T16:21:01;26.70;69.40
1716;DHT22;855;48.824;9.220;2022-09-06T16:23:30;26.50;69.00
1716;DHT22;855;48.824;9.220;2022-09-06T16:25:57;26.50;69.80
1716;DHT22;855;48.824;9.220;2022-09-06T16:28:27;26.50;69.30
1716;DHT22;855;48.824;9.220;2022-09-06T16:30:54;26.50;68.90
1716;DHT22;855;48.824;9.220;2022-09-06T16:33:21;26.40;68.10
1716;DHT22;855;48.824;9.220;2022-09-06T16:35:48;26.40;68.60
1716;DHT22;855;48.824;9.220;2022-09-06T16:38:15;26.60;68.10
1716;DHT22;855;48.824;9.220;2022-09-06T16:40:44;26.70;68.20
1716;DHT22;855;48.824;9.220;2022-09-06T16:43:12;26.80;67.60